Brevik Bridge — VRHY7 — position and weather

sailwx.info

Track history (hours):
 
Tides and Currents Weather Stations Pressure Air Temp Water Temp Dewpoint Dewpoint Depression Visibility Wind Speed Wind Dir Waves Ship Positions

Brevik Bridge

Last reported at 2018-Jul-17 05:30 UTC. Time now 2018-Jul-17 05:26 UTC.
Position N 44°24' E 008°54'.

Length 268 m; draft 10.2 m.

Type: Ship (hazmat cat A). MMSI: 477866200.

Date/timePositionNaut miles runAvg speedWind from/ knotsBaromVisibWave heightAir tempDewpointWater temp
2018-Jul-17 05:30N 44°24' E 008°54'0 0.0
2018-Jul-17 05:00N 44°24' E 008°54'0 0.0
2018-Jul-17 04:30N 44°24' E 008°54'1 2.9
2018-Jul-17 04:00N 44°24' E 008°56'3 5.4
2018-Jul-17 03:30N 44°22' E 008°58'3 6.6
2018-Jul-17 03:00N 44°19' E 009°00'0 0.4
2018-Jul-17 02:30N 44°18' E 009°00'0 0.6
2018-Jul-17 02:00N 44°19' E 009°01'3 5.4
2018-Jul-17 01:30N 44°16' E 009°01'611.6
2018-Jul-17 01:00N 44°12' E 009°07'611.5
2018-Jul-17 00:30N 44°09' E 009°14'1111.1
2018-Jul-16 23:30N 44°03' E 009°27'510.7
2018-Jul-16 23:00N 44°00' E 009°33'510.7
2018-Jul-16 22:30N 43°58' E 009°40'510.9
2018-Jul-16 22:00N 43°58' E 009°48'510.7
2018-Jul-16 21:30N 44°02' E 009°52'4 7.9
2018-Jul-16 20:58N 44°06' E 009°51'0 0.1
2018-Jul-16 20:28N 44°06' E 009°51'0 0.0
2018-Jul-16 19:58N 44°06' E 009°51'0 0.0
2018-Jul-16 19:28N 44°06' E 009°51'0 0.0
2018-Jul-16 18:55N 44°06' E 009°51'0 0.0
2018-Jul-16 18:28N 44°06' E 009°51'0 0.0
2018-Jul-16 17:58N 44°06' E 009°51'0 0.0
2018-Jul-16 17:28N 44°06' E 009°51'0 0.0
2018-Jul-16 16:58N 44°06' E 009°51'0 0.0
2018-Jul-16 16:28N 44°06' E 009°51'0 0.0
2018-Jul-16 15:58N 44°06' E 009°51'0 0.0
2018-Jul-16 15:28N 44°06' E 009°51'0 0.0
2018-Jul-16 14:58N 44°06' E 009°51'0 0.0
2018-Jul-16 14:28N 44°06' E 009°51'0 0.0
2018-Jul-16 13:58N 44°06' E 009°51'0 0.0
2018-Jul-16 13:28N 44°06' E 009°51'0 0.0
2018-Jul-16 12:58N 44°06' E 009°51'0 0.0
2018-Jul-16 12:28N 44°06' E 009°51'0 0.0
2018-Jul-16 11:58N 44°06' E 009°51'0 0.0
2018-Jul-16 11:28N 44°06' E 009°51'0 0.0
2018-Jul-16 10:58N 44°06' E 009°51'0 0.1
2018-Jul-16 10:31N 44°06' E 009°51'0 0.0
2018-Jul-16 09:58N 44°06' E 009°51'0 0.1
2018-Jul-16 09:28N 44°06' E 009°51'0 0.0
2018-Jul-16 08:55N 44°06' E 009°51'0 0.0
2018-Jul-16 08:28N 44°06' E 009°51'0 0.0
2018-Jul-16 07:58N 44°06' E 009°51'0 0.0
2018-Jul-16 07:28N 44°06' E 009°51'0 0.0
2018-Jul-16 06:58N 44°06' E 009°51'0 0.0
2018-Jul-16 06:28N 44°06' E 009°51'0 0.0
2018-Jul-16 05:58N 44°06' E 009°51'0 0.0
2018-Jul-16 05:28N 44°06' E 009°51'0 0.0
2018-Jul-16 04:58N 44°06' E 009°51'0 0.0
2018-Jul-16 04:28N 44°06' E 009°51'0 0.0
2018-Jul-16 03:58N 44°06' E 009°51'0 0.0
2018-Jul-16 03:25N 44°06' E 009°51'0 0.0
2018-Jul-16 02:58N 44°06' E 009°51'0 0.0
2018-Jul-16 02:28N 44°06' E 009°51'0 0.0
2018-Jul-16 01:58N 44°06' E 009°51'0 0.0
2018-Jul-16 01:28N 44°06' E 009°51'0 0.0
2018-Jul-16 00:58N 44°06' E 009°51'0 0.0
2018-Jul-16 00:28N 44°06' E 009°51'0 0.1
2018-Jul-15 23:58N 44°06' E 009°51'0 0.0
2018-Jul-15 23:28N 44°06' E 009°51'0 0.0
2018-Jul-15 22:58N 44°06' E 009°51'0 0.0
2018-Jul-15 22:25N 44°06' E 009°51'0 0.0
2018-Jul-15 21:58N 44°06' E 009°51'0 0.0
2018-Jul-15 21:28N 44°06' E 009°51'0 0.0
2018-Jul-15 20:58N 44°06' E 009°51'0 0.0
2018-Jul-15 20:28N 44°06' E 009°51'0 0.0
2018-Jul-15 19:58N 44°06' E 009°51'0 0.0
2018-Jul-15 19:28N 44°06' E 009°51'0 0.6
2018-Jul-15 19:01N 44°06' E 009°51'3 6.7
2018-Jul-15 18:30N 44°03' E 009°52'2 4.2
2018-Jul-15 18:00N 44°02' E 009°55'0 0.5
2018-Jul-15 17:28N 44°02' E 009°55'0 0.0
2018-Jul-15 16:58N 44°02' E 009°55'0 0.0
2018-Jul-15 16:30N 44°02' E 009°55'0 0.0
2018-Jul-15 15:58N 44°02' E 009°55'0 0.0
2018-Jul-15 15:28N 44°02' E 009°55'0 0.0
2018-Jul-15 14:58N 44°02' E 009°55'0 0.0
2018-Jul-15 14:25N 44°02' E 009°55'0 0.0
2018-Jul-15 13:58N 44°02' E 009°55'0 0.0
2018-Jul-15 13:28N 44°02' E 009°55'0 0.1
2018-Jul-15 12:58N 44°02' E 009°55'0 0.0
2018-Jul-15 12:28N 44°02' E 009°55'0 0.0
2018-Jul-15 11:58N 44°02' E 009°55'0 0.1
2018-Jul-15 11:28N 44°02' E 009°55'0 0.1
2018-Jul-15 10:58N 44°02' E 009°55'0 0.0
2018-Jul-15 10:28N 44°02' E 009°55'0 0.0
2018-Jul-15 09:58N 44°02' E 009°55'0 0.1
2018-Jul-15 09:28N 44°02' E 009°55'0 0.1
2018-Jul-15 08:58N 44°02' E 009°55'0 0.1
2018-Jul-15 08:28N 44°02' E 009°55'0 0.2
2018-Jul-15 07:58N 44°02' E 009°55'0 0.1
2018-Jul-15 07:28N 44°02' E 009°55'0 0.0
2018-Jul-15 06:58N 44°02' E 009°55'0 0.0
2018-Jul-15 06:28N 44°02' E 009°55'0 0.0
2018-Jul-15 05:58N 44°02' E 009°55'0 0.1
2018-Jul-15 05:28N 44°02' E 009°55'0 0.1
2018-Jul-15 04:58N 44°02' E 009°55'0 0.1
2018-Jul-15 04:28N 44°02' E 009°55'0 0.1
2018-Jul-15 03:58N 44°02' E 009°55'0 0.0
2018-Jul-15 03:28N 44°02' E 009°55'0 0.0
2018-Jul-15 02:58N 44°02' E 009°55'0 0.0
2018-Jul-15 02:28N 44°02' E 009°55'0 0.0
2018-Jul-15 01:58N 44°02' E 009°55'0 0.1
2018-Jul-15 01:28N 44°02' E 009°55'0 0.1
2018-Jul-15 00:58N 44°02' E 009°55'0 0.1
2018-Jul-15 00:28N 44°02' E 009°55'0 0.1
2018-Jul-14 23:58N 44°02' E 009°55'0 0.0
2018-Jul-14 23:28N 44°02' E 009°55'0 0.0
2018-Jul-14 22:58N 44°02' E 009°55'0 0.1
2018-Jul-14 22:28N 44°02' E 009°55'0 0.1
2018-Jul-14 21:58N 44°02' E 009°55'0 0.1
2018-Jul-14 21:28N 44°02' E 009°55'0 0.1
2018-Jul-14 20:58N 44°02' E 009°55'0 0.1
2018-Jul-14 20:28N 44°02' E 009°55'0 0.0
2018-Jul-14 19:55N 44°02' E 009°55'0 0.0
2018-Jul-14 19:28N 44°02' E 009°55'0 0.1
2018-Jul-14 18:58N 44°02' E 009°55'0 0.0
2018-Jul-14 18:28N 44°02' E 009°55'0 0.0
2018-Jul-14 17:58N 44°02' E 009°55'0 0.1
2018-Jul-14 17:28N 44°02' E 009°55'0 0.2
2018-Jul-14 17:00N 44°02' E 009°55'0 0.2
2018-Jul-14 16:30N 44°02' E 009°55'1 1.7
2018-Jul-14 16:00N 44°01' E 009°56'5 9.2
2018-Jul-14 15:30N 43°57' E 009°56'612.3
2018-Jul-14 15:00N 43°51' E 009°53'612.4
2018-Jul-14 14:30N 43°45' E 009°50'1211.7
2018-Jul-14 13:30N 43°33' E 009°50'611.6
2018-Jul-14 13:00N 43°30' E 009°57'612.1
2018-Jul-14 12:30N 43°30' E 010°05'611.9
2018-Jul-14 12:00N 43°31' E 010°13'4 7.3
2018-Jul-14 11:30N 43°33' E 010°17'2 3.4
2018-Jul-14 10:58N 43°35' E 010°18'0 0.0
2018-Jul-14 10:28N 43°35' E 010°18'0 0.0
2018-Jul-14 09:58N 43°35' E 010°18'0 0.0
2018-Jul-14 09:25N 43°35' E 010°18'0 0.0
2018-Jul-14 08:52N 43°35' E 010°18'0 0.0
2018-Jul-14 08:25N 43°35' E 010°18'0 0.0
2018-Jul-14 07:58N 43°35' E 010°18'0 0.0
2018-Jul-14 07:28N 43°35' E 010°18'0 0.0
2018-Jul-14 06:58N 43°35' E 010°18'0 0.0
2018-Jul-14 06:28N 43°35' E 010°18'0 0.0
2018-Jul-14 05:58N 43°35' E 010°18'0 0.0
2018-Jul-14 05:28N 43°35' E 010°18'0 0.0
2018-Jul-14 04:58N 43°35' E 010°18'0 0.0
2018-Jul-14 04:28N 43°35' E 010°18'0 0.0
2018-Jul-14 03:58N 43°35' E 010°18'0 0.0
2018-Jul-14 03:25N 43°35' E 010°18'0 0.0
2018-Jul-14 02:58N 43°35' E 010°18'0 0.0
2018-Jul-14 02:28N 43°35' E 010°18'0 0.0
2018-Jul-14 01:58N 43°35' E 010°18'0 0.0
2018-Jul-14 01:28N 43°35' E 010°18'0 0.0
2018-Jul-14 00:58N 43°35' E 010°18'0 0.0
2018-Jul-14 00:28N 43°35' E 010°18'0 0.0
2018-Jul-13 23:58N 43°35' E 010°18'0 0.0
2018-Jul-13 23:28N 43°35' E 010°18'0 0.0
2018-Jul-13 22:58N 43°35' E 010°18'0 0.0
2018-Jul-13 22:28N 43°35' E 010°18'0 0.0
2018-Jul-13 21:58N 43°35' E 010°18'0 0.0
2018-Jul-13 21:28N 43°35' E 010°18'0 0.0
2018-Jul-13 20:58N 43°35' E 010°18'0 0.0
2018-Jul-13 20:28N 43°35' E 010°18'0 0.0
2018-Jul-13 19:58N 43°35' E 010°18'0 0.0
2018-Jul-13 19:28N 43°35' E 010°18'0 0.0
2018-Jul-13 18:58N 43°35' E 010°18'0 0.0
2018-Jul-13 18:28N 43°35' E 010°18'0 0.0
2018-Jul-13 17:58N 43°35' E 010°18'0 0.0
2018-Jul-13 17:28N 43°35' E 010°18'0 0.0
2018-Jul-13 16:58N 43°35' E 010°18'0 0.0
2018-Jul-13 16:28N 43°35' E 010°18'0 0.0
2018-Jul-13 15:58N 43°35' E 010°18'0 0.0
2018-Jul-13 15:28N 43°35' E 010°18'0 0.0
2018-Jul-13 14:58N 43°35' E 010°18'0 0.0
2018-Jul-13 13:58N 43°35' E 010°18'0 0.0
2018-Jul-13 13:28N 43°35' E 010°18'0 0.0
2018-Jul-13 12:58N 43°35' E 010°18'0 0.0
2018-Jul-13 12:28N 43°35' E 010°18'0 0.0
2018-Jul-13 11:58N 43°35' E 010°18'0 0.0
2018-Jul-13 11:28N 43°35' E 010°18'0 0.0
2018-Jul-13 10:52N 43°35' E 010°18'0 0.0
2018-Jul-13 10:28N 43°35' E 010°18'0 0.0
2018-Jul-13 10:00N 43°35' E 010°18'0 0.3
2018-Jul-13 09:30N 43°34' E 010°18'2 3.1
2018-Jul-13 09:00N 43°33' E 010°17'4 7.0
2018-Jul-13 08:30N 43°30' E 010°14'510.1
2018-Jul-13 08:00N 43°27' E 010°09'816.2
2018-Jul-13 07:30N 43°21' E 010°01'816.7
2018-Jul-13 07:00N 43°17' E 009°51'918.0
2018-Jul-13 06:29N 43°16' E 009°39'919.6
2018-Jul-13 06:00N 43°15' E 009°26'1019.7
2018-Jul-13 05:30N 43°13' E 009°12'1020.1
2018-Jul-13 05:00N 43°08' E 009°01'1020.3
2018-Jul-13 04:30N 43°02' E 008°49'1020.8
2018-Jul-13 04:00N 42°57' E 008°36'1020.7
2018-Jul-13 03:30N 42°52' E 008°24'1120.6
2018-Jul-13 03:00N 42°46' E 008°13'1020.5
2018-Jul-13 02:30N 42°40' E 008°02'1020.3
2018-Jul-13 01:59N 42°35' E 007°49'1020.3
2018-Jul-13 01:30N 42°31' E 007°37'1020.0
2018-Jul-13 01:00N 42°24' E 007°27'1020.2
2018-Jul-13 00:30N 42°19' E 007°15'1020.1
2018-Jul-13 00:00N 42°14' E 007°04'1020.1
2018-Jul-12 23:30N 42°08' E 006°52'1020.3
2018-Jul-12 23:00N 42°03' E 006°41'1020.1
2018-Jul-12 22:30N 41°57' E 006°29'1020.3
2018-Jul-12 22:00N 41°52' E 006°18'1020.4
2018-Jul-12 21:30N 41°47' E 006°06'1020.2
2018-Jul-12 21:00N 41°41' E 005°54'4320.3
2018-Jul-12 18:55N 41°19' E 005°06'820.5
2018-Jul-12 18:30N 41°14' E 004°57'1020.2
2018-Jul-12 18:00N 41°09' E 004°46'1020.4
2018-Jul-12 17:30N 41°04' E 004°34'1020.3
2018-Jul-12 17:00N 40°58' E 004°23'1120.3
2018-Jul-12 16:29N 40°53' E 004°11'22018.4
2018-Jul-12 04:32N 38°37' E 000°25'316.5
2018-Jul-12 04:22N 38°35' E 000°23'1416.5
2018-Jul-12 03:31N 38°23' E 000°13'1116.7
2018-Jul-12 02:50N 38°14' E 000°04'617.3
2018-Jul-12 02:30N 38°09' E 000°00'917.6
2018-Jul-12 02:00N 38°02' W 000°06'917.7
2018-Jul-12 01:30N 37°54' W 000°12'917.6
2018-Jul-12 01:00N 37°47' W 000°18'917.4
2018-Jul-12 00:30N 37°40' W 000°24'917.2
2018-Jul-12 00:00N 37°33' W 000°31'817.1
2018-Jul-11 23:30N 37°27' W 000°39'816.9
2018-Jul-11 23:00N 37°21' W 000°46'816.9
2018-Jul-11 22:30N 37°16' W 000°55'1817.4
2018-Jul-11 21:30N 37°04' W 001°11'1617.4
2018-Jul-11 20:33N 36°54' W 001°27'217.4
2018-Jul-11 20:27N 36°53' W 001°29'2217.6
2018-Jul-11 19:13N 36°38' W 001°48'418.2
2018-Jul-11 19:00N 36°35' W 001°52'1017.8
2018-Jul-11 18:25N 36°28' W 002°01'15817.8
2018-Jul-11 09:33N 36°00' W 005°14'215.2
2018-Jul-11 09:27N 35°60' W 005°16'613.9
2018-Jul-11 09:00N 35°58' W 005°23'15916.2
2018-Jul-10 23:12N 36°03' W 008°39'1217.6
2018-Jul-10 22:33N 36°07' W 008°53'517.8
2018-Jul-10 22:17N 36°09' W 008°58'2718.0
2018-Jul-10 20:47N 36°20' W 009°28'518.1
2018-Jul-10 20:29N 36°22' W 009°34'917.9
2018-Jul-10 20:00N 36°26' W 009°44'1817.7
2018-Jul-10 19:01N 36°33' W 010°05'017.9
2018-Jul-10 19:00N 36°33' W 010°05'1418.1
2018-Jul-10 18:14N 36°36' W 010°22'718.0
2018-Jul-10 17:51N 36°38' W 010°30'618.1
2018-Jul-10 17:30N 36°40' W 010°38'1717.9
2018-Jul-10 16:33N 36°44' W 010°58'118.1
2018-Jul-10 16:30N 36°44' W 010°59'917.8
2018-Jul-10 16:00N 36°46' W 011°10'1317.9
2018-Jul-10 15:17N 36°50' W 011°25'517.8
2018-Jul-10 15:01N 36°51' W 011°31'917.7
2018-Jul-10 14:30N 36°53' W 011°42'917.8
2018-Jul-10 14:00N 36°56' W 011°53'917.5
2018-Jul-10 13:30N 36°58' W 012°03'917.5
2018-Jul-10 13:00N 37°00' W 012°14'917.7
2018-Jul-10 12:30N 37°02' W 012°25'2617.4
2018-Jul-10 11:00N 37°09' W 012°57'13318.0
2018-Jul-10 03:36N 37°43' W 015°38'518.0
2018-Jul-10 03:21N 37°44' W 015°44'617.9
2018-Jul-10 03:01N 37°46' W 015°51'1817.9
2018-Jul-10 01:59N 37°51' W 016°14'7017.7
2018-Jul-09 22:02N 38°09' W 017°39'117.3
2018-Jul-09 21:59N 38°09' W 017°41'45817.2
2018-Jul-08 19:24N 39°30' W 027°20'1818.0
2018-Jul-08 18:23N 39°33' W 027°43'1118.3
2018-Jul-08 17:46N 39°34' W 027°58'518.2
2018-Jul-08 17:30N 39°35' W 028°04'917.9
2018-Jul-08 17:00N 39°36' W 028°15'1117.3
2018-Jul-08 16:24N 39°38' W 028°29'717.5
2018-Jul-08 16:00N 39°39' W 028°37'917.3
2018-Jul-08 15:30N 39°40' W 028°49'917.5
2018-Jul-08 15:00N 39°42' W 028°60'917.3
2018-Jul-08 14:30N 39°43' W 029°11'917.3
2018-Jul-08 14:00N 39°44' W 029°22'917.5
2018-Jul-08 13:30N 39°46' W 029°33'917.5
2018-Jul-08 13:00N 39°47' W 029°45'917.3
2018-Jul-08 12:30N 39°48' W 029°56'917.0
2018-Jul-08 11:59N 39°50' W 030°07'816.6
2018-Jul-08 11:29N 39°51' W 030°18'916.7
2018-Jul-08 10:55N 39°53' W 030°30'4615.7
2018-Jul-08 07:59N 39°58' W 031°29'815.8
2018-Jul-08 07:30N 39°58' W 031°39'815.8
2018-Jul-08 07:00N 39°58' W 031°50'816.0
2018-Jul-08 06:30N 39°58' W 032°00'  
Track history (hours):
 
Tides and Currents Weather Stations Pressure Air Temp Water Temp Dewpoint Dewpoint Depression Visibility Wind Speed Wind Dir Waves Ship Positions

Brevik Bridge

Last reported at 2018-Jul-17 05:30 UTC. Time now 2018-Jul-17 05:26 UTC.
Position N 44°24' E 008°54'.

Length 268 m; draft 10.2 m.

Type: Ship (hazmat cat A). MMSI: 477866200.

Date/timePositionNaut miles runAvg speedWind from/ knotsBaromVisibWave heightAir tempDewpointWater temp
2018-Jul-17 05:30N 44°24' E 008°54'0 0.0
2018-Jul-17 05:00N 44°24' E 008°54'0 0.0
2018-Jul-17 04:30N 44°24' E 008°54'1 2.9
2018-Jul-17 04:00N 44°24' E 008°56'3 5.4
2018-Jul-17 03:30N 44°22' E 008°58'3 6.6
2018-Jul-17 03:00N 44°19' E 009°00'0 0.4
2018-Jul-17 02:30N 44°18' E 009°00'0 0.6
2018-Jul-17 02:00N 44°19' E 009°01'3 5.4
2018-Jul-17 01:30N 44°16' E 009°01'611.6
2018-Jul-17 01:00N 44°12' E 009°07'611.5
2018-Jul-17 00:30N 44°09' E 009°14'1111.1
2018-Jul-16 23:30N 44°03' E 009°27'510.7
2018-Jul-16 23:00N 44°00' E 009°33'510.7
2018-Jul-16 22:30N 43°58' E 009°40'510.9
2018-Jul-16 22:00N 43°58' E 009°48'510.7
2018-Jul-16 21:30N 44°02' E 009°52'4 7.9
2018-Jul-16 20:58N 44°06' E 009°51'0 0.1
2018-Jul-16 20:28N 44°06' E 009°51'0 0.0
2018-Jul-16 19:58N 44°06' E 009°51'0 0.0
2018-Jul-16 19:28N 44°06' E 009°51'0 0.0
2018-Jul-16 18:55N 44°06' E 009°51'0 0.0
2018-Jul-16 18:28N 44°06' E 009°51'0 0.0
2018-Jul-16 17:58N 44°06' E 009°51'0 0.0
2018-Jul-16 17:28N 44°06' E 009°51'0 0.0
2018-Jul-16 16:58N 44°06' E 009°51'0 0.0
2018-Jul-16 16:28N 44°06' E 009°51'0 0.0
2018-Jul-16 15:58N 44°06' E 009°51'0 0.0
2018-Jul-16 15:28N 44°06' E 009°51'0 0.0
2018-Jul-16 14:58N 44°06' E 009°51'0 0.0
2018-Jul-16 14:28N 44°06' E 009°51'0 0.0
2018-Jul-16 13:58N 44°06' E 009°51'0 0.0
2018-Jul-16 13:28N 44°06' E 009°51'0 0.0
2018-Jul-16 12:58N 44°06' E 009°51'0 0.0
2018-Jul-16 12:28N 44°06' E 009°51'0 0.0
2018-Jul-16 11:58N 44°06' E 009°51'0 0.0
2018-Jul-16 11:28N 44°06' E 009°51'0 0.0
2018-Jul-16 10:58N 44°06' E 009°51'0 0.1
2018-Jul-16 10:31N 44°06' E 009°51'0 0.0
2018-Jul-16 09:58N 44°06' E 009°51'0 0.1
2018-Jul-16 09:28N 44°06' E 009°51'0 0.0
2018-Jul-16 08:55N 44°06' E 009°51'0 0.0
2018-Jul-16 08:28N 44°06' E 009°51'0 0.0
2018-Jul-16 07:58N 44°06' E 009°51'0 0.0
2018-Jul-16 07:28N 44°06' E 009°51'0 0.0
2018-Jul-16 06:58N 44°06' E 009°51'0 0.0
2018-Jul-16 06:28N 44°06' E 009°51'0 0.0
2018-Jul-16 05:58N 44°06' E 009°51'0 0.0
2018-Jul-16 05:28N 44°06' E 009°51'0 0.0
2018-Jul-16 04:58N 44°06' E 009°51'0 0.0
2018-Jul-16 04:28N 44°06' E 009°51'0 0.0
2018-Jul-16 03:58N 44°06' E 009°51'0 0.0
2018-Jul-16 03:25N 44°06' E 009°51'0 0.0
2018-Jul-16 02:58N 44°06' E 009°51'0 0.0
2018-Jul-16 02:28N 44°06' E 009°51'0 0.0
2018-Jul-16 01:58N 44°06' E 009°51'0 0.0
2018-Jul-16 01:28N 44°06' E 009°51'0 0.0
2018-Jul-16 00:58N 44°06' E 009°51'0 0.0
2018-Jul-16 00:28N 44°06' E 009°51'0 0.1
2018-Jul-15 23:58N 44°06' E 009°51'0 0.0
2018-Jul-15 23:28N 44°06' E 009°51'0 0.0
2018-Jul-15 22:58N 44°06' E 009°51'0 0.0
2018-Jul-15 22:25N 44°06' E 009°51'0 0.0
2018-Jul-15 21:58N 44°06' E 009°51'0 0.0
2018-Jul-15 21:28N 44°06' E 009°51'0 0.0
2018-Jul-15 20:58N 44°06' E 009°51'0 0.0
2018-Jul-15 20:28N 44°06' E 009°51'0 0.0
2018-Jul-15 19:58N 44°06' E 009°51'0 0.0
2018-Jul-15 19:28N 44°06' E 009°51'0 0.6
2018-Jul-15 19:01N 44°06' E 009°51'3 6.7
2018-Jul-15 18:30N 44°03' E 009°52'2 4.2
2018-Jul-15 18:00N 44°02' E 009°55'0 0.5
2018-Jul-15 17:28N 44°02' E 009°55'0 0.0
2018-Jul-15 16:58N 44°02' E 009°55'0 0.0
2018-Jul-15 16:30N 44°02' E 009°55'0 0.0
2018-Jul-15 15:58N 44°02' E 009°55'0 0.0
2018-Jul-15 15:28N 44°02' E 009°55'0 0.0
2018-Jul-15 14:58N 44°02' E 009°55'0 0.0
2018-Jul-15 14:25N 44°02' E 009°55'0 0.0
2018-Jul-15 13:58N 44°02' E 009°55'0 0.0
2018-Jul-15 13:28N 44°02' E 009°55'0 0.1
2018-Jul-15 12:58N 44°02' E 009°55'0 0.0
2018-Jul-15 12:28N 44°02' E 009°55'0 0.0
2018-Jul-15 11:58N 44°02' E 009°55'0 0.1
2018-Jul-15 11:28N 44°02' E 009°55'0 0.1
2018-Jul-15 10:58N 44°02' E 009°55'0 0.0
2018-Jul-15 10:28N 44°02' E 009°55'0 0.0
2018-Jul-15 09:58N 44°02' E 009°55'0 0.1
2018-Jul-15 09:28N 44°02' E 009°55'0 0.1
2018-Jul-15 08:58N 44°02' E 009°55'0 0.1
2018-Jul-15 08:28N 44°02' E 009°55'0 0.2
2018-Jul-15 07:58N 44°02' E 009°55'0 0.1
2018-Jul-15 07:28N 44°02' E 009°55'0 0.0
2018-Jul-15 06:58N 44°02' E 009°55'0 0.0
2018-Jul-15 06:28N 44°02' E 009°55'0 0.0
2018-Jul-15 05:58N 44°02' E 009°55'0 0.1
2018-Jul-15 05:28N 44°02' E 009°55'0 0.1
2018-Jul-15 04:58N 44°02' E 009°55'0 0.1
2018-Jul-15 04:28N 44°02' E 009°55'0 0.1
2018-Jul-15 03:58N 44°02' E 009°55'0 0.0
2018-Jul-15 03:28N 44°02' E 009°55'0 0.0
2018-Jul-15 02:58N 44°02' E 009°55'0 0.0
2018-Jul-15 02:28N 44°02' E 009°55'0 0.0
2018-Jul-15 01:58N 44°02' E 009°55'0 0.1
2018-Jul-15 01:28N 44°02' E 009°55'0 0.1
2018-Jul-15 00:58N 44°02' E 009°55'0 0.1
2018-Jul-15 00:28N 44°02' E 009°55'0 0.1
2018-Jul-14 23:58N 44°02' E 009°55'0 0.0
2018-Jul-14 23:28N 44°02' E 009°55'0 0.0
2018-Jul-14 22:58N 44°02' E 009°55'0 0.1
2018-Jul-14 22:28N 44°02' E 009°55'0 0.1
2018-Jul-14 21:58N 44°02' E 009°55'0 0.1
2018-Jul-14 21:28N 44°02' E 009°55'0 0.1
2018-Jul-14 20:58N 44°02' E 009°55'0 0.1
2018-Jul-14 20:28N 44°02' E 009°55'0 0.0
2018-Jul-14 19:55N 44°02' E 009°55'0 0.0
2018-Jul-14 19:28N 44°02' E 009°55'0 0.1
2018-Jul-14 18:58N 44°02' E 009°55'0 0.0
2018-Jul-14 18:28N 44°02' E 009°55'0 0.0
2018-Jul-14 17:58N 44°02' E 009°55'0 0.1
2018-Jul-14 17:28N 44°02' E 009°55'0 0.2
2018-Jul-14 17:00N 44°02' E 009°55'0 0.2
2018-Jul-14 16:30N 44°02' E 009°55'1 1.7
2018-Jul-14 16:00N 44°01' E 009°56'5 9.2
2018-Jul-14 15:30N 43°57' E 009°56'612.3
2018-Jul-14 15:00N 43°51' E 009°53'612.4
2018-Jul-14 14:30N 43°45' E 009°50'1211.7
2018-Jul-14 13:30N 43°33' E 009°50'611.6
2018-Jul-14 13:00N 43°30' E 009°57'612.1
2018-Jul-14 12:30N 43°30' E 010°05'611.9
2018-Jul-14 12:00N 43°31' E 010°13'4 7.3
2018-Jul-14 11:30N 43°33' E 010°17'2 3.4
2018-Jul-14 10:58N 43°35' E 010°18'0 0.0
2018-Jul-14 10:28N 43°35' E 010°18'0 0.0
2018-Jul-14 09:58N 43°35' E 010°18'0 0.0
2018-Jul-14 09:25N 43°35' E 010°18'0 0.0
2018-Jul-14 08:52N 43°35' E 010°18'0 0.0
2018-Jul-14 08:25N 43°35' E 010°18'0 0.0
2018-Jul-14 07:58N 43°35' E 010°18'0 0.0
2018-Jul-14 07:28N 43°35' E 010°18'0 0.0
2018-Jul-14 06:58N 43°35' E 010°18'0 0.0
2018-Jul-14 06:28N 43°35' E 010°18'0 0.0
2018-Jul-14 05:58N 43°35' E 010°18'0 0.0
2018-Jul-14 05:28N 43°35' E 010°18'0 0.0
2018-Jul-14 04:58N 43°35' E 010°18'0 0.0
2018-Jul-14 04:28N 43°35' E 010°18'0 0.0
2018-Jul-14 03:58N 43°35' E 010°18'0 0.0
2018-Jul-14 03:25N 43°35' E 010°18'0 0.0
2018-Jul-14 02:58N 43°35' E 010°18'0 0.0
2018-Jul-14 02:28N 43°35' E 010°18'0 0.0
2018-Jul-14 01:58N 43°35' E 010°18'0 0.0
2018-Jul-14 01:28N 43°35' E 010°18'0 0.0
2018-Jul-14 00:58N 43°35' E 010°18'0 0.0
2018-Jul-14 00:28N 43°35' E 010°18'0 0.0
2018-Jul-13 23:58N 43°35' E 010°18'0 0.0
2018-Jul-13 23:28N 43°35' E 010°18'0 0.0
2018-Jul-13 22:58N 43°35' E 010°18'0 0.0
2018-Jul-13 22:28N 43°35' E 010°18'0 0.0
2018-Jul-13 21:58N 43°35' E 010°18'0 0.0
2018-Jul-13 21:28N 43°35' E 010°18'0 0.0
2018-Jul-13 20:58N 43°35' E 010°18'0 0.0
2018-Jul-13 20:28N 43°35' E 010°18'0 0.0
2018-Jul-13 19:58N 43°35' E 010°18'0 0.0
2018-Jul-13 19:28N 43°35' E 010°18'0 0.0
2018-Jul-13 18:58N 43°35' E 010°18'0 0.0
2018-Jul-13 18:28N 43°35' E 010°18'0 0.0
2018-Jul-13 17:58N 43°35' E 010°18'0 0.0
2018-Jul-13 17:28N 43°35' E 010°18'0 0.0
2018-Jul-13 16:58N 43°35' E 010°18'0 0.0
2018-Jul-13 16:28N 43°35' E 010°18'0 0.0
2018-Jul-13 15:58N 43°35' E 010°18'0 0.0
2018-Jul-13 15:28N 43°35' E 010°18'0 0.0
2018-Jul-13 14:58N 43°35' E 010°18'0 0.0
2018-Jul-13 13:58N 43°35' E 010°18'0 0.0
2018-Jul-13 13:28N 43°35' E 010°18'0 0.0
2018-Jul-13 12:58N 43°35' E 010°18'0 0.0
2018-Jul-13 12:28N 43°35' E 010°18'0 0.0
2018-Jul-13 11:58N 43°35' E 010°18'0 0.0
2018-Jul-13 11:28N 43°35' E 010°18'0 0.0
2018-Jul-13 10:52N 43°35' E 010°18'0 0.0
2018-Jul-13 10:28N 43°35' E 010°18'0 0.0
2018-Jul-13 10:00N 43°35' E 010°18'0 0.3
2018-Jul-13 09:30N 43°34' E 010°18'2 3.1
2018-Jul-13 09:00N 43°33' E 010°17'4 7.0
2018-Jul-13 08:30N 43°30' E 010°14'510.1
2018-Jul-13 08:00N 43°27' E 010°09'816.2
2018-Jul-13 07:30N 43°21' E 010°01'816.7
2018-Jul-13 07:00N 43°17' E 009°51'918.0
2018-Jul-13 06:29N 43°16' E 009°39'919.6
2018-Jul-13 06:00N 43°15' E 009°26'1019.7
2018-Jul-13 05:30N 43°13' E 009°12'1020.1
2018-Jul-13 05:00N 43°08' E 009°01'1020.3
2018-Jul-13 04:30N 43°02' E 008°49'1020.8
2018-Jul-13 04:00N 42°57' E 008°36'1020.7
2018-Jul-13 03:30N 42°52' E 008°24'1120.6
2018-Jul-13 03:00N 42°46' E 008°13'1020.5
2018-Jul-13 02:30N 42°40' E 008°02'1020.3
2018-Jul-13 01:59N 42°35' E 007°49'1020.3
2018-Jul-13 01:30N 42°31' E 007°37'1020.0
2018-Jul-13 01:00N 42°24' E 007°27'1020.2
2018-Jul-13 00:30N 42°19' E 007°15'1020.1
2018-Jul-13 00:00N 42°14' E 007°04'1020.1
2018-Jul-12 23:30N 42°08' E 006°52'1020.3
2018-Jul-12 23:00N 42°03' E 006°41'1020.1
2018-Jul-12 22:30N 41°57' E 006°29'1020.3
2018-Jul-12 22:00N 41°52' E 006°18'1020.4
2018-Jul-12 21:30N 41°47' E 006°06'1020.2
2018-Jul-12 21:00N 41°41' E 005°54'4320.3
2018-Jul-12 18:55N 41°19' E 005°06'820.5
2018-Jul-12 18:30N 41°14' E 004°57'1020.2
2018-Jul-12 18:00N 41°09' E 004°46'1020.4
2018-Jul-12 17:30N 41°04' E 004°34'1020.3
2018-Jul-12 17:00N 40°58' E 004°23'1120.3
2018-Jul-12 16:29N 40°53' E 004°11'22018.4
2018-Jul-12 04:32N 38°37' E 000°25'316.5
2018-Jul-12 04:22N 38°35' E 000°23'1416.5
2018-Jul-12 03:31N 38°23' E 000°13'1116.7
2018-Jul-12 02:50N 38°14' E 000°04'617.3
2018-Jul-12 02:30N 38°09' E 000°00'917.6
2018-Jul-12 02:00N 38°02' W 000°06'917.7
2018-Jul-12 01:30N 37°54' W 000°12'917.6
2018-Jul-12 01:00N 37°47' W 000°18'917.4
2018-Jul-12 00:30N 37°40' W 000°24'917.2
2018-Jul-12 00:00N 37°33' W 000°31'817.1
2018-Jul-11 23:30N 37°27' W 000°39'816.9
2018-Jul-11 23:00N 37°21' W 000°46'816.9
2018-Jul-11 22:30N 37°16' W 000°55'1817.4
2018-Jul-11 21:30N 37°04' W 001°11'1617.4
2018-Jul-11 20:33N 36°54' W 001°27'217.4
2018-Jul-11 20:27N 36°53' W 001°29'2217.6
2018-Jul-11 19:13N 36°38' W 001°48'418.2
2018-Jul-11 19:00N 36°35' W 001°52'1017.8
2018-Jul-11 18:25N 36°28' W 002°01'15817.8
2018-Jul-11 09:33N 36°00' W 005°14'215.2
2018-Jul-11 09:27N 35°60' W 005°16'613.9
2018-Jul-11 09:00N 35°58' W 005°23'15916.2
2018-Jul-10 23:12N 36°03' W 008°39'1217.6
2018-Jul-10 22:33N 36°07' W 008°53'517.8
2018-Jul-10 22:17N 36°09' W 008°58'2718.0
2018-Jul-10 20:47N 36°20' W 009°28'518.1
2018-Jul-10 20:29N 36°22' W 009°34'917.9
2018-Jul-10 20:00N 36°26' W 009°44'1817.7
2018-Jul-10 19:01N 36°33' W 010°05'017.9
2018-Jul-10 19:00N 36°33' W 010°05'1418.1
2018-Jul-10 18:14N 36°36' W 010°22'718.0
2018-Jul-10 17:51N 36°38' W 010°30'618.1
2018-Jul-10 17:30N 36°40' W 010°38'1717.9
2018-Jul-10 16:33N 36°44' W 010°58'118.1
2018-Jul-10 16:30N 36°44' W 010°59'917.8
2018-Jul-10 16:00N 36°46' W 011°10'1317.9
2018-Jul-10 15:17N 36°50' W 011°25'517.8
2018-Jul-10 15:01N 36°51' W 011°31'917.7
2018-Jul-10 14:30N 36°53' W 011°42'917.8
2018-Jul-10 14:00N 36°56' W 011°53'917.5
2018-Jul-10 13:30N 36°58' W 012°03'917.5
2018-Jul-10 13:00N 37°00' W 012°14'917.7
2018-Jul-10 12:30N 37°02' W 012°25'2617.4
2018-Jul-10 11:00N 37°09' W 012°57'13318.0
2018-Jul-10 03:36N 37°43' W 015°38'518.0
2018-Jul-10 03:21N 37°44' W 015°44'617.9
2018-Jul-10 03:01N 37°46' W 015°51'1817.9
2018-Jul-10 01:59N 37°51' W 016°14'7017.7
2018-Jul-09 22:02N 38°09' W 017°39'117.3
2018-Jul-09 21:59N 38°09' W 017°41'45817.2
2018-Jul-08 19:24N 39°30' W 027°20'1818.0
2018-Jul-08 18:23N 39°33' W 027°43'1118.3
2018-Jul-08 17:46N 39°34' W 027°58'518.2
2018-Jul-08 17:30N 39°35' W 028°04'917.9
2018-Jul-08 17:00N 39°36' W 028°15'1117.3
2018-Jul-08 16:24N 39°38' W 028°29'717.5
2018-Jul-08 16:00N 39°39' W 028°37'917.3
2018-Jul-08 15:30N 39°40' W 028°49'917.5
2018-Jul-08 15:00N 39°42' W 028°60'917.3
2018-Jul-08 14:30N 39°43' W 029°11'917.3
2018-Jul-08 14:00N 39°44' W 029°22'917.5
2018-Jul-08 13:30N 39°46' W 029°33'917.5
2018-Jul-08 13:00N 39°47' W 029°45'917.3
2018-Jul-08 12:30N 39°48' W 029°56'917.0
2018-Jul-08 11:59N 39°50' W 030°07'816.6
2018-Jul-08 11:29N 39°51' W 030°18'916.7
2018-Jul-08 10:55N 39°53' W 030°30'4615.7
2018-Jul-08 07:59N 39°58' W 031°29'815.8
2018-Jul-08 07:30N 39°58' W 031°39'815.8
2018-Jul-08 07:00N 39°58' W 031°50'816.0
2018-Jul-08 06:30N 39°58' W 032°00'  

Dump ship's entire track history